Time;durP1;ratioP1;P1;durP2;ratioP2;P2;SDS_P1;SDS_P2;PMS_P1;PMS_P2;Temp;Humidity;BMP_temperature;BMP_pressure;BME280_temperature;BME280_humidity;BME280_pressure;Samples;Min_cycle;Max_cycle;Signal;HPM_P1;HPM_P2
2023/05/08 00:02:33;;;;;;;5.13;3.23;;;11.70;97.10;;;10.32;77.54;100563.50;10423488;27;96682;-88
2023/05/08 00:07:37;;;;;;;4.13;2.80;;;11.70;97.40;;;10.25;77.56;100565.09;10424532;27;96816;-88
2023/05/08 00:12:40;;;;;;;5.70;3.60;;;11.60;97.70;;;10.17;77.92;100547.25;10422379;28;96443;-89
2023/05/08 00:17:43;;;;;;;3.87;3.00;;;11.50;97.80;;;10.11;77.88;100563.81;10439209;27;96958;-87
2023/05/08 00:22:47;;;;;;;3.17;2.57;;;11.40;98.10;;;10.04;78.23;100563.59;10452545;27;96688;-88
2023/05/08 00:27:50;;;;;;;4.47;3.10;;;11.40;98.40;;;10.00;78.56;100561.41;10437431;27;96457;-88
2023/05/08 00:32:53;;;;;;;4.37;2.90;;;11.40;98.60;;;9.92;77.92;100565.69;10428296;27;96664;-88
2023/05/08 00:37:56;;;;;;;3.67;2.33;;;11.30;98.50;;;9.88;77.63;100558.16;10425534;27;98022;-89
2023/05/08 00:42:59;;;;;;;3.73;2.83;;;11.30;98.60;;;9.80;77.71;100564.25;10372214;27;97188;-88
2023/05/08 00:48:03;;;;;;;8.90;2.43;;;11.30;98.60;;;9.74;77.98;100558.72;10465484;27;96631;-87
2023/05/08 00:53:06;;;;;;;4.70;3.40;;;11.20;98.70;;;9.61;77.96;100556.47;10433118;27;96496;-87
2023/05/08 00:58:11;;;;;;;4.97;3.00;;;11.10;98.80;;;9.53;78.34;100574.94;10467717;27;96402;-88
2023/05/08 01:03:14;;;;;;;4.40;3.17;;;11.00;99.00;;;9.44;78.60;100576.72;10456950;27;98129;-88
2023/05/08 01:08:17;;;;;;;4.17;3.10;;;10.90;99.30;;;9.27;78.98;100580.19;10413621;27;96554;-88
2023/05/08 01:13:54;;;;;;;3.83;2.70;;;10.70;99.80;;;9.18;79.31;100586.41;10397603;27;98584;-88
2023/05/08 01:19:32;;;;;;;4.13;3.20;;;10.60;99.90;;;9.04;80.06;100590.38;10398704;28;97027;-88
2023/05/08 01:24:59;;;;;;;5.60;3.33;;;10.50;99.90;;;8.94;80.83;100589.59;10395618;27;98246;-88
2023/05/08 01:30:27;;;;;;;3.97;3.07;;;10.30;99.90;;;8.88;81.29;100598.97;10407274;27;97345;-88
2023/05/08 01:35:44;;;;;;;4.23;3.10;;;10.20;99.90;;;8.82;81.99;100603.06;10424717;27;96379;-87
2023/05/08 01:41:01;;;;;;;6.70;4.53;;;10.20;99.90;;;8.72;82.50;100601.41;10395795;27;97927;-88
2023/05/08 01:46:13;;;;;;;7.10;4.07;;;10.10;99.90;;;8.64;82.63;100594.22;10434480;27;96706;-88
2023/05/08 01:51:24;;;;;;;5.70;4.27;;;10.10;99.90;;;8.58;83.08;100600.91;10427593;27;97244;-88
2023/05/08 01:56:29;;;;;;;4.65;2.88;;;10.00;99.90;;;8.56;83.64;100608.16;10411199;27;97298;-88
2023/05/08 02:01:33;;;;;;;4.93;3.87;;;10.00;99.90;;;8.58;83.85;100603.56;10419577;27;96665;-88
2023/05/08 02:06:37;;;;;;;6.60;4.33;;;10.00;99.90;;;8.65;83.93;100611.75;10408975;27;97136;-88
2023/05/08 02:11:43;;;;;;;6.60;3.30;;;10.00;99.90;;;8.64;83.97;100607.44;10396351;27;96627;-88
2023/05/08 02:16:49;;;;;;;4.27;3.10;;;10.10;99.90;;;8.72;84.34;100617.31;10425867;27;96711;-88
2023/05/08 02:21:55;;;;;;;4.60;2.80;;;10.10;99.90;;;8.78;84.34;100617.56;10403649;27;96938;-88
2023/05/08 02:26:59;;;;;;;4.50;3.40;;;10.20;99.90;;;8.83;83.80;100628.56;10412471;28;96669;-88
2023/05/08 02:32:07;;;;;;;6.43;2.97;;;10.20;99.90;;;8.87;83.67;100625.59;10414799;27;97332;-89
2023/05/08 02:37:12;;;;;;;4.83;2.83;;;10.30;99.90;;;8.93;83.47;100630.31;10437473;27;96499;-88
2023/05/08 02:42:15;;;;;;;4.67;3.50;;;10.30;99.90;;;8.98;83.17;100615.66;10385124;27;96467;-88
2023/05/08 02:47:38;;;;;;;4.57;3.27;;;10.40;99.90;;;9.06;83.20;100617.59;10372085;27;97020;-88
2023/05/08 02:52:49;;;;;;;3.93;2.87;;;10.40;99.90;;;9.14;82.84;100620.31;10432027;27;97844;-88
2023/05/08 02:58:14;;;;;;;;;;;10.50;99.90;;;9.20;82.43;100626.84;10449524;27;96931;-89
2023/05/08 03:03:39;;;;;;;4.60;2.60;;;10.60;99.90;;;9.22;82.02;100627.53;10429984;27;97587;-88
2023/05/08 03:08:46;;;;;;;3.70;2.60;;;10.70;99.90;;;9.23;81.90;100632.66;10419523;27;96611;-88
2023/05/08 03:13:54;;;;;;;3.83;2.83;;;10.70;99.90;;;9.33;81.58;100630.81;10433251;27;96496;-88
2023/05/08 03:19:04;;;;;;;3.30;2.30;;;10.80;99.90;;;9.37;81.25;100621.56;10437541;27;96682;-89
2023/05/08 03:24:08;;;;;;;5.87;4.03;;;10.80;99.90;;;9.48;81.01;100628.50;10437189;27;97887;-88
2023/05/08 03:29:14;;;;;;;3.13;2.23;;;10.90;99.90;;;9.54;80.54;100627.88;10388173;27;96526;-89
2023/05/08 03:34:20;;;;;;;3.00;2.20;;;11.00;99.90;;;9.57;79.36;100624.91;10384500;28;98730;-89
2023/05/08 03:39:25;;;;;;;3.03;2.00;;;11.10;99.90;;;9.67;78.70;100635.47;10439782;27;96560;-88
2023/05/08 03:44:29;;;;;;;4.13;2.33;;;11.10;99.90;;;9.69;78.50;100641.44;10414984;27;97267;-88
2023/05/08 03:49:33;;;;;;;3.47;2.37;;;11.20;99.90;;;9.75;78.62;100642.66;10408874;27;98287;-89
2023/05/08 03:54:36;;;;;;;6.03;2.87;;;11.20;99.90;;;9.79;78.48;100650.19;10394156;27;97239;-89
2023/05/08 03:59:53;;;;;;;3.87;2.67;;;11.20;99.90;;;9.84;78.76;100645.25;10405372;27;96551;-88
2023/05/08 04:05:38;;;;;;;3.20;2.00;;;11.30;99.90;;;9.89;77.95;100650.91;10428402;27;96807;-89
2023/05/08 04:11:16;;;;;;;3.83;2.50;;;11.40;99.90;;;9.96;77.70;100656.47;10400048;27;97400;-89
2023/05/08 04:16:27;;;;;;;3.43;2.20;;;11.40;99.90;;;9.99;76.03;100665.94;10440761;27;97418;-89
2023/05/08 04:21:34;;;;;;;3.00;2.27;;;11.50;99.90;;;9.99;74.93;100665.94;10422533;27;96922;-89
2023/05/08 04:26:39;;;;;;;4.07;2.43;;;11.50;99.90;;;9.98;73.11;100669.59;10441773;27;97613;-89
2023/05/08 04:31:44;;;;;;;2.83;2.03;;;11.50;99.90;;;10.05;73.01;100686.56;10447528;27;97970;-89
2023/05/08 04:36:47;;;;;;;2.40;1.77;;;11.50;99.90;;;10.01;70.55;100685.19;10458168;27;97452;-91
2023/05/08 04:41:51;;;;;;;2.50;1.50;;;11.50;99.00;;;10.09;70.78;100695.91;10415367;27;96542;-89
2023/05/08 04:46:54;;;;;;;3.63;2.00;;;11.50;99.10;;;10.13;71.54;100706.06;10419089;27;97750;-90
2023/05/08 04:51:57;;;;;;;1.70;1.40;;;11.60;99.10;;;10.19;70.01;100708.13;10418819;27;97103;-89
2023/05/08 04:57:01;;;;;;;2.17;1.50;;;11.60;98.60;;;10.30;68.88;100717.69;10404124;28;96526;-89
2023/05/08 05:02:06;;;;;;;2.17;1.60;;;11.70;98.30;;;10.30;68.19;100716.88;10441144;27;96936;-92
2023/05/08 05:07:10;;;;;;;2.10;1.30;;;11.80;97.90;;;10.32;67.70;100717.56;10413467;27;97554;-92
2023/05/08 05:12:17;;;;;;;2.37;1.47;;;11.90;97.50;;;10.40;67.49;100736.22;10416785;27;97279;-92
2023/05/08 05:17:20;;;;;;;3.17;1.23;;;11.90;97.20;;;10.43;66.97;100726.13;10438016;27;98260;-93
2023/05/08 05:22:23;;;;;;;1.40;0.90;;;12.00;97.00;;;10.42;64.91;100727.09;10425938;27;97141;-94
2023/05/08 05:27:26;;;;;;;1.67;1.00;;;12.00;96.30;;;10.51;65.49;100735.97;10440389;27;96638;-90
2023/05/08 05:32:29;;;;;;;1.47;1.00;;;12.10;96.10;;;10.51;63.72;100740.47;10386610;27;97604;-86
2023/05/08 05:37:32;;;;;;;1.27;0.83;;;12.10;95.40;;;10.63;64.79;100747.19;10438259;27;97803;-86
2023/05/08 05:42:35;;;;;;;1.47;0.87;;;12.10;95.40;;;10.75;64.63;100748.63;10424424;27;97715;-86
2023/05/08 05:47:42;;;;;;;1.90;0.97;;;12.20;95.20;;;10.63;60.39;100749.84;10424228;27;96626;-87
2023/05/08 05:52:46;;;;;;;2.03;0.70;;;12.20;93.00;;;10.66;62.07;100749.53;10382540;27;98606;-87
2023/05/08 05:57:49;;;;;;;2.20;0.87;;;12.20;93.30;;;10.73;61.37;100758.53;10427245;27;96761;-87
2023/05/08 06:02:52;;;;;;;1.77;0.70;;;12.30;93.10;;;10.87;60.94;100762.50;10419027;27;97877;-86
2023/05/08 06:07:56;;;;;;;1.97;0.70;;;12.40;92.80;;;10.92;60.19;100758.38;10398639;27;96669;-86
2023/05/08 06:12:59;;;;;;;0.97;0.80;;;12.50;92.40;;;11.01;59.80;100755.75;10434748;27;96655;-86
2023/05/08 06:18:02;;;;;;;0.90;0.60;;;12.50;92.00;;;11.07;58.48;100753.28;10431736;27;98232;-86
2023/05/08 06:23:05;;;;;;;1.50;1.00;;;12.60;91.30;;;11.07;57.58;100755.13;10409157;28;96717;-87
2023/05/08 06:28:08;;;;;;;1.73;0.80;;;12.60;90.60;;;11.10;58.25;100749.50;10433267;27;97936;-86
2023/05/08 06:33:11;;;;;;;1.00;0.80;;;12.70;90.40;;;11.20;57.42;100763.50;10428920;27;98810;-87
2023/05/08 06:38:15;;;;;;;1.10;0.70;;;12.70;90.00;;;11.39;58.67;100763.25;10404275;27;96747;-86
2023/05/08 06:43:18;;;;;;;1.10;0.70;;;12.90;90.30;;;11.55;57.46;100759.84;10408301;27;96617;-87
2023/05/08 06:48:21;;;;;;;1.03;0.70;;;13.10;89.80;;;11.81;57.36;100757.13;10441061;27;96384;-86
2023/05/08 06:53:24;;;;;;;1.60;0.70;;;13.30;89.30;;;11.98;56.25;100764.16;10436439;27;96711;-86
2023/05/08 06:58:27;;;;;;;1.53;0.50;;;13.50;88.20;;;12.15;55.68;100770.38;10424093;27;96642;-86
2023/05/08 07:03:30;;;;;;;1.40;0.73;;;13.70;87.00;;;12.27;54.26;100760.22;10438435;27;96519;-86
2023/05/08 07:08:33;;;;;;;1.10;0.50;;;13.80;85.60;;;12.29;54.36;100766.22;10386256;28;96731;-86
2023/05/08 07:13:36;;;;;;;1.73;0.70;;;13.80;84.10;;;12.33;53.67;100768.38;10388192;28;97000;-85
2023/05/08 07:18:39;;;;;;;0.70;0.50;;;13.90;82.70;;;12.54;54.18;100772.41;10391798;28;96965;-86
2023/05/08 07:23:43;;;;;;;0.80;0.60;;;14.00;83.40;;;12.51;51.84;100764.72;10397860;27;98163;-85
2023/05/08 07:28:46;;;;;;;1.57;0.37;;;14.10;80.50;;;12.57;51.14;100764.06;10392941;27;96586;-85
2023/05/08 07:33:49;;;;;;;0.87;0.50;;;14.10;79.30;;;12.74;51.37;100763.06;10415621;28;96477;-85
2023/05/08 07:38:52;;;;;;;1.27;0.40;;;14.20;78.80;;;13.04;51.78;100764.19;10361165;28;97569;-84
2023/05/08 07:43:55;;;;;;;0.88;0.40;;;14.50;79.20;;;13.34;51.10;100765.28;10390959;28;96677;-85
2023/05/08 07:48:58;;;;;;;1.40;0.40;;;14.70;78.60;;;13.67;51.54;100762.47;10400324;28;96668;-84
2023/05/08 07:54:01;;;;;;;1.13;0.50;;;15.10;78.70;;;13.94;49.81;100763.84;10398707;27;97861;-84
2023/05/08 07:59:04;;;;;;;0.75;0.50;;;15.30;77.50;;;14.13;49.04;100763.41;10412250;27;96854;-83
2023/05/08 08:04:07;;;;;;;0.80;0.55;;;15.60;76.60;;;14.44;48.49;100760.66;10425453;27;96555;-84
2023/05/08 08:09:11;;;;;;;0.50;0.30;;;15.70;75.80;;;14.72;48.58;100768.16;10437608;27;98649;-85
2023/05/08 08:14:14;;;;;;;0.80;0.50;;;16.00;75.90;;;14.90;47.85;100760.63;10400167;28;96930;-85
2023/05/08 08:19:16;;;;;;;0.85;0.50;;;16.20;74.40;;;15.00;45.74;100768.41;10428363;27;96751;-85
2023/05/08 08:24:19;;;;;;;0.40;0.35;;;16.30;72.30;;;14.66;46.58;100764.38;10439909;27;97387;-87
2023/05/08 08:29:23;;;;;;;0.75;0.40;;;16.20;71.00;;;14.83;46.61;100759.69;10459251;27;96384;-84
2023/05/08 08:34:26;;;;;;;2.40;0.50;;;16.20;71.90;;;14.86;45.51;100763.84;10437715;27;96792;-86
2023/05/08 08:39:33;;;;;;;0.50;0.40;;;16.30;69.70;;;15.07;45.94;100757.81;10418733;27;96776;-83
2023/05/08 08:44:36;;;;;;;0.60;0.40;;;16.60;70.20;;;15.63;45.29;100745.59;10433422;27;98166;-85
2023/05/08 08:49:49;;;;;;;0.90;0.40;;;17.00;70.30;;;15.80;43.61;100754.25;10424379;27;98126;-84
2023/05/08 08:54:55;;;;;;;1.00;0.50;;;17.20;67.90;;;15.94;44.65;100745.34;10410687;27;96746;-84
2023/05/08 09:00:04;;;;;;;0.95;0.40;;;17.30;68.20;;;15.88;42.27;100761.34;10430111;27;96761;-83
2023/05/08 09:05:08;;;;;;;0.60;0.30;;;17.40;64.90;;;15.83;42.11;100750.34;10431790;27;97103;-84
2023/05/08 09:10:14;;;;;;;2.05;0.40;;;17.30;65.10;;;16.00;43.45;100749.13;10430698;27;96489;-84
2023/05/08 09:15:18;;;;;;;0.65;0.35;;;17.40;65.70;;;16.28;41.97;100749.19;10429307;27;97091;-85
2023/05/08 09:20:22;;;;;;;2.08;0.47;;;17.70;64.50;;;16.50;41.38;100728.56;10425946;27;96716;-84
2023/05/08 09:25:25;;;;;;;3.60;0.47;;;17.80;63.80;;;16.51;40.17;100735.59;10433651;27;98277;-85
2023/05/08 09:30:28;;;;;;;0.47;0.30;;;18.00;61.80;;;16.57;40.78;100724.91;10411583;27;97663;-85
2023/05/08 09:35:36;;;;;;;0.47;0.22;;;18.00;61.90;;;16.73;41.81;100736.41;10430854;27;96593;-85
2023/05/08 09:40:39;;;;;;;0.55;0.28;;;18.20;62.30;;;17.02;40.66;100725.47;10402873;27;96722;-85
2023/05/08 09:45:42;;;;;;;3.72;0.22;;;18.40;61.80;;;17.14;39.96;100715.00;10443173;27;96884;-85
2023/05/08 09:50:45;;;;;;;0.82;0.20;;;18.60;60.80;;;17.46;40.11;100726.13;10412297;27;98141;-85
2023/05/08 09:55:48;;;;;;;1.35;0.20;;;18.80;61.20;;;17.61;38.64;100721.41;10424292;27;97007;-84
2023/05/08 10:00:51;;;;;;;0.55;0.32;;;19.10;60.00;;;17.46;38.71;100718.06;10402803;27;96676;-85
2023/05/08 10:06:12;;;;;;;0.10;0.10;;;19.00;58.10;;;17.41;37.52;100717.81;10385257;27;96616;-85
2023/05/08 10:11:18;;;;;;;0.82;0.20;;;18.90;57.10;;;17.62;38.51;100706.94;10440565;27;96600;-84
2023/05/08 10:16:21;;;;;;;1.88;0.20;;;19.10;57.80;;;17.84;38.67;100702.28;10373737;27;96488;-85
2023/05/08 10:21:28;;;;;;;0.50;0.30;;;19.30;58.00;;;17.75;37.98;100690.06;10405053;27;96729;-85
2023/05/08 10:26:36;;;;;;;0.45;0.10;;;19.30;56.90;;;17.94;37.88;100697.38;10438064;27;96631;-85
2023/05/08 10:31:44;;;;;;;0.75;0.32;;;19.40;57.10;;;18.22;37.79;100686.41;10383081;27;96528;-85
2023/05/08 10:36:51;;;;;;;0.30;0.10;;;19.60;57.00;;;18.30;33.94;100680.84;10418962;27;96800;-84
2023/05/08 10:41:56;;;;;;;0.28;0.20;;;19.80;53.00;;;18.03;33.91;100689.91;10433561;27;97523;-85
2023/05/08 10:47:13;;;;;;;0.60;0.28;;;19.60;51.70;;;18.08;33.76;100679.38;10413535;27;97510;-84
2023/05/08 10:52:20;;;;;;;0.32;0.20;;;19.70;52.00;;;18.37;33.73;100683.53;10409599;27;97964;-85
2023/05/08 10:57:23;;;;;;;1.45;0.20;;;19.80;52.40;;;18.38;33.89;100675.25;10424641;27;97617;-85
2023/05/08 11:02:35;;;;;;;1.17;0.20;;;19.90;51.80;;;18.36;33.09;100674.63;10426633;27;96560;-84
2023/05/08 11:08:00;;;;;;;2.42;0.28;;;19.90;51.30;;;18.19;34.55;100668.00;10378301;28;96453;-86
2023/05/08 11:13:04;;;;;;;0.40;0.20;;;19.80;52.00;;;18.34;34.11;100657.84;10425033;27;98091;-84
2023/05/08 11:18:10;;;;;;;3.63;0.20;;;19.90;51.50;;;18.63;34.04;100658.47;10467117;27;96635;-86
2023/05/08 11:23:31;;;;;;;0.47;0.25;;;20.10;51.70;;;19.03;33.59;100658.41;10414087;27;98336;-84
2023/05/08 11:28:57;;;;;;;0.65;0.30;;;20.40;51.70;;;18.69;34.15;100647.72;10394609;28;96558;-85
2023/05/08 11:34:00;;;;;;;0.50;0.20;;;20.30;50.80;;;19.22;33.79;100649.44;10396678;27;98337;-86
2023/05/08 11:39:14;;;;;;;0.25;0.20;;;20.60;51.40;;;19.24;32.24;100658.94;10410409;27;96521;-86
2023/05/08 11:44:22;;;;;;;0.65;0.20;;;20.80;49.50;;;19.56;32.07;100642.84;10426325;27;97085;-85
2023/05/08 11:49:26;;;;;;;0.70;0.20;;;21.10;49.90;;;19.48;32.57;100652.00;10411987;27;98247;-83
2023/05/08 11:54:32;;;;;;;0.35;0.20;;;21.20;49.60;;;19.31;33.46;100666.16;10424165;27;96865;-84
2023/05/08 11:59:36;;;;;;;1.00;0.30;;;21.00;49.90;;;19.16;32.36;100658.38;10452811;27;96574;-83
2023/05/08 12:04:44;;;;;;;0.30;0.30;;;20.90;48.90;;;19.40;32.84;100659.50;10410060;27;97483;-84
2023/05/08 12:09:48;;;;;;;0.45;0.25;;;21.00;49.30;;;19.82;32.11;100652.66;10414328;27;97601;-83
2023/05/08 12:14:51;;;;;;;0.30;0.20;;;21.40;49.10;;;19.87;31.52;100639.34;10430036;27;96601;-83
2023/05/08 12:19:55;;;;;;;1.58;0.32;;;21.50;48.40;;;19.98;31.94;100638.66;10420184;27;96642;-83
2023/05/08 12:24:58;;;;;;;3.20;0.50;;;21.60;48.60;;;20.19;31.37;100650.13;10426246;27;96701;-84
2023/05/08 12:30:07;;;;;;;1.65;0.20;;;22.10;47.90;;;20.64;29.13;100642.69;10423002;27;98406;-84
2023/05/08 12:35:12;;;;;;;0.32;0.20;;;23.00;46.30;;;20.88;30.14;100637.47;10418656;28;96547;-85
2023/05/08 12:40:54;;;;;;;0.45;0.40;;;23.40;46.10;;;21.64;28.89;100632.31;10439361;27;96594;-85
2023/05/08 12:45:57;;;;;;;0.90;0.40;;;24.10;45.70;;;22.09;26.40;100636.44;10431643;27;97793;-85
2023/05/08 12:51:03;;;;;;;3.30;0.70;;;24.90;43.20;;;21.78;25.24;100640.28;10423983;27;97149;-84
2023/05/08 12:56:06;;;;;;;0.63;0.30;;;25.00;40.00;;;22.01;27.11;100640.31;10405295;27;96759;-84
2023/05/08 13:01:15;;;;;;;0.60;0.28;;;24.80;41.90;;;22.59;25.27;100636.03;10440928;27;96569;-84
2023/05/08 13:06:20;;;;;;;0.55;0.30;;;25.10;41.60;;;22.62;25.17;100633.69;10424421;27;96809;-84
2023/05/08 13:11:32;;;;;;;0.65;0.30;;;25.10;40.90;;;23.02;24.55;100640.25;10408268;27;98534;-84
2023/05/08 13:16:48;;;;;;;0.68;0.20;;;24.90;41.20;;;23.18;25.47;100643.03;10434873;27;96598;-84
2023/05/08 13:21:52;;;;;;;0.57;0.40;;;24.80;41.60;;;23.25;24.41;100629.34;10444604;27;96941;-84
2023/05/08 13:26:55;;;;;;;0.82;0.40;;;24.80;40.80;;;22.92;25.48;100624.59;10407558;27;96788;-83
2023/05/08 13:31:58;;;;;;;1.50;0.50;;;24.40;41.00;;;22.40;26.46;100625.31;10391083;27;96673;-85
2023/05/08 13:37:01;;;;;;;0.55;0.40;;;24.00;41.50;;;21.78;26.34;100632.16;10442250;27;96602;-85
2023/05/08 13:42:04;;;;;;;1.27;0.38;;;23.50;41.30;;;21.62;27.54;100630.91;10385407;28;96454;-85
2023/05/08 13:47:09;;;;;;;2.95;0.40;;;23.20;42.50;;;21.66;27.98;100631.28;10384943;27;97241;-84
2023/05/08 13:52:12;;;;;;;0.38;0.32;;;23.20;43.10;;;21.53;29.18;100626.88;10403543;27;96643;-84
2023/05/08 13:57:15;;;;;;;1.27;0.43;;;23.00;43.80;;;21.48;28.38;100627.59;10437941;27;96686;-82
2023/05/08 14:02:18;;;;;;;0.50;0.40;;;23.10;44.00;;;21.14;28.15;100629.03;10390090;28;97472;-83
2023/05/08 14:07:21;;;;;;;2.05;0.50;;;23.10;42.70;;;20.51;29.47;100629.28;10390631;28;96480;-84
2023/05/08 14:12:25;;;;;;;0.93;0.30;;;22.90;43.20;;;20.96;28.80;100629.88;10385012;28;96728;-84
2023/05/08 14:17:27;;;;;;;1.00;0.40;;;23.60;43.10;;;21.22;27.67;100623.31;10397069;27;97176;-84
2023/05/08 14:22:30;;;;;;;2.15;0.47;;;24.10;41.60;;;21.58;26.38;100624.31;10376315;28;96704;-84
2023/05/08 14:27:33;;;;;;;0.52;0.32;;;24.60;40.40;;;21.52;25.68;100628.75;10373195;28;96617;-84
2023/05/08 14:32:36;;;;;;;0.60;0.50;;;24.70;39.20;;;22.13;26.04;100637.66;10359336;28;96638;-84
2023/05/08 14:37:40;;;;;;;0.98;0.50;;;25.10;39.90;;;22.10;25.06;100630.84;10372383;28;96595;-84
2023/05/08 14:42:43;;;;;;;1.48;0.57;;;25.30;38.90;;;21.87;25.37;100638.88;10389629;27;96694;-87
2023/05/08 14:47:46;;;;;;;1.55;0.50;;;25.00;38.80;;;22.16;25.22;100638.00;10384391;28;97384;-84
2023/05/08 14:52:49;;;;;;;4.18;0.85;;;25.20;39.00;;;22.38;25.09;100651.00;10383972;28;97562;-84
2023/05/08 14:57:52;;;;;;;0.75;0.60;;;25.30;38.80;;;22.34;24.81;100647.91;10402095;28;97929;-84
2023/05/08 15:02:55;;;;;;;2.03;0.60;;;25.40;38.40;;;22.08;25.02;100645.63;10427156;27;96568;-84
2023/05/08 15:08:01;;;;;;;1.85;0.55;;;25.10;38.50;;;22.31;25.83;100655.66;10460378;27;97330;-83
2023/05/08 15:13:04;;;;;;;0.50;0.40;;;25.10;39.10;;;22.26;24.67;100652.88;10408655;27;96542;-84
2023/05/08 15:18:08;;;;;;;0.77;0.40;;;25.20;38.30;;;21.97;25.93;100652.66;10423075;27;96700;-85
2023/05/08 15:23:11;;;;;;;0.68;0.30;;;24.90;38.80;;;21.50;26.45;100667.91;10441869;27;98673;-84
2023/05/08 15:28:14;;;;;;;0.55;0.40;;;24.40;39.30;;;21.01;26.54;100667.03;10444812;27;98569;-83
2023/05/08 15:33:17;;;;;;;0.93;0.40;;;23.90;39.40;;;20.77;26.68;100666.03;10471682;27;97410;-84
2023/05/08 15:38:20;;;;;;;1.63;0.75;;;23.60;39.50;;;20.53;27.48;100675.81;10411440;27;96695;-83
2023/05/08 15:43:23;;;;;;;0.57;0.43;;;23.30;39.80;;;20.57;27.79;100669.75;10409264;27;98686;-84
2023/05/08 15:48:26;;;;;;;0.90;0.50;;;23.20;40.40;;;20.95;27.84;100668.75;10422873;27;97310;-84
2023/05/08 15:53:29;;;;;;;0.75;0.40;;;23.40;40.80;;;20.67;27.69;100671.94;10412167;28;96667;-84
2023/05/08 15:58:33;;;;;;;2.80;0.60;;;23.20;40.50;;;20.47;28.32;100669.44;10457795;27;98902;-84
2023/05/08 16:03:36;;;;;;;0.95;0.65;;;22.80;41.20;;;20.28;26.80;100673.91;10454860;27;96859;-84
2023/05/08 16:08:39;;;;;;;1.75;0.60;;;22.50;40.40;;;19.91;28.70;100674.78;10411050;27;97525;-83
2023/05/08 16:13:42;;;;;;;0.85;0.57;;;22.10;41.30;;;19.64;27.88;100677.66;10406045;27;96926;-83
2023/05/08 16:18:45;;;;;;;2.63;0.77;;;21.80;41.10;;;19.32;27.12;100679.44;10404165;27;98229;-84
2023/05/08 16:23:48;;;;;;;0.98;0.60;;;21.60;40.20;;;19.22;28.36;100679.06;10395798;27;97372;-84
2023/05/08 16:28:51;;;;;;;1.42;0.70;;;21.50;41.00;;;18.92;29.69;100694.91;10391045;28;98752;-84
2023/05/08 16:33:54;;;;;;;1.38;0.70;;;21.30;42.20;;;18.58;30.71;100706.69;10384821;27;96616;-84
2023/05/08 16:38:57;;;;;;;1.23;0.70;;;20.80;43.10;;;18.40;30.46;100702.78;10411554;27;97314;-84
2023/05/08 16:44:00;;;;;;;2.42;0.80;;;20.50;43.40;;;18.02;30.35;100712.47;10431622;27;97316;-83
2023/05/08 16:49:03;;;;;;;1.70;1.00;;;20.20;43.00;;;17.79;30.57;100712.81;10400515;27;96610;-83
2023/05/08 16:54:06;;;;;;;1.92;0.90;;;19.80;43.90;;;17.29;31.72;100726.44;10444535;27;96552;-84
2023/05/08 16:59:09;;;;;;;1.52;1.00;;;19.30;44.60;;;16.78;33.52;100739.34;10391330;27;98402;-84
2023/05/08 17:04:15;;;;;;;1.50;1.00;;;18.60;45.70;;;16.47;35.13;100747.72;10420571;27;96791;-83
2023/05/08 17:09:18;;;;;;;2.67;1.40;;;18.20;47.40;;;16.11;36.98;100753.97;10422944;27;96572;-84
2023/05/08 17:14:21;;;;;;;3.13;1.23;;;17.80;49.10;;;15.81;37.91;100763.97;10417048;27;97862;-83
2023/05/08 17:19:24;;;;;;;3.67;1.50;;;17.50;50.40;;;15.50;39.11;100774.88;10407015;27;97444;-83
2023/05/08 17:24:31;;;;;;;3.10;1.45;;;17.10;51.40;;;15.15;39.02;100787.97;10431527;27;97890;-83
2023/05/08 17:29:34;;;;;;;3.47;1.65;;;16.70;51.70;;;14.86;39.35;100799.47;10450210;27;97657;-84
2023/05/08 17:34:37;;;;;;;4.88;1.92;;;16.40;52.10;;;14.69;39.84;100814.84;10449409;27;96623;-83
2023/05/08 17:39:40;;;;;;;5.93;1.52;;;16.20;52.50;;;14.48;40.43;100820.00;10433869;27;96636;-84
2023/05/08 17:44:43;;;;;;;3.20;1.85;;;16.00;53.00;;;14.13;40.74;100826.72;10440537;27;98575;-83
2023/05/08 17:49:46;;;;;;;2.15;1.30;;;15.70;53.40;;;13.90;40.73;100848.03;10404713;27;97105;-84
2023/05/08 17:54:50;;;;;;;1.95;1.38;;;15.40;53.60;;;13.76;41.29;100846.09;10438287;27;96775;-84
2023/05/08 17:59:53;;;;;;;3.10;1.27;;;15.20;53.80;;;13.62;41.98;100845.81;10412766;27;96779;-85
2023/05/08 18:04:56;;;;;;;3.33;1.60;;;15.10;54.40;;;13.50;42.49;100867.72;10391577;27;97135;-86
2023/05/08 18:10:00;;;;;;;2.73;1.70;;;15.00;55.10;;;13.36;42.75;100882.56;10423660;27;96563;-85
2023/05/08 18:15:07;;;;;;;3.77;1.97;;;14.80;55.30;;;13.21;43.31;100886.94;10431552;27;97509;-86
2023/05/08 18:20:10;;;;;;;3.87;1.90;;;14.70;55.80;;;13.15;43.67;100895.59;10421750;27;96744;-87
2023/05/08 18:25:14;;;;;;;5.57;1.70;;;14.60;56.10;;;12.98;44.03;100911.59;10400494;27;96968;-86
2023/05/08 18:30:17;;;;;;;7.30;2.00;;;14.40;56.80;;;12.82;44.63;100919.56;10414393;27;96783;-86
2023/05/08 18:35:20;;;;;;;3.40;1.90;;;14.30;57.20;;;12.72;45.17;100924.25;10382966;27;96632;-86
2023/05/08 18:40:23;;;;;;;3.70;2.30;;;14.10;57.40;;;12.62;45.54;100932.38;10409909;27;96930;-85
2023/05/08 18:45:26;;;;;;;4.67;2.40;;;14.10;57.70;;;12.54;45.87;100943.03;10413890;27;98721;-85
2023/05/08 18:50:29;;;;;;;5.47;3.07;;;14.00;58.00;;;12.49;46.27;100951.50;10449094;27;97384;-84
2023/05/08 18:55:32;;;;;;;4.60;3.10;;;13.90;58.40;;;12.33;46.66;100962.09;10417276;27;97754;-85
2023/05/08 19:00:35;;;;;;;6.70;3.13;;;13.80;58.80;;;12.22;46.85;100963.22;10424429;27;96650;-85
2023/05/08 19:05:40;;;;;;;6.20;3.63;;;13.70;59.30;;;12.12;47.48;100975.03;10429735;27;96403;-85
2023/05/08 19:10:44;;;;;;;4.70;2.70;;;13.60;59.60;;;12.03;47.72;100979.44;10413168;27;96766;-85
2023/05/08 19:15:47;;;;;;;4.50;2.70;;;13.50;59.80;;;11.90;47.82;100985.22;10413409;27;98237;-84
2023/05/08 19:20:51;;;;;;;5.53;2.73;;;13.40;60.00;;;11.76;48.23;100991.91;10420186;27;96652;-85
2023/05/08 19:25:54;;;;;;;5.20;2.63;;;13.20;60.40;;;11.62;48.54;100986.31;10439775;27;96680;-84
2023/05/08 19:30:57;;;;;;;4.33;2.47;;;13.10;60.90;;;11.49;49.00;100989.38;10428397;27;97193;-85
2023/05/08 19:36:00;;;;;;;6.97;3.33;;;13.00;61.10;;;11.41;49.68;100989.31;10445890;27;96693;-84
2023/05/08 19:41:03;;;;;;;5.83;3.70;;;12.90;61.40;;;11.33;49.24;100990.06;10456126;27;97296;-84
2023/05/08 19:46:06;;;;;;;4.80;3.30;;;12.80;61.70;;;11.25;49.42;100995.31;10427519;27;96442;-85
2023/05/08 19:51:11;;;;;;;3.53;2.53;;;12.70;61.70;;;11.19;49.57;101001.25;10427666;27;97017;-85
2023/05/08 19:56:14;;;;;;;3.67;2.37;;;12.60;61.90;;;11.16;49.72;100990.94;10388194;27;96788;-85
2023/05/08 20:01:17;;;;;;;4.57;2.90;;;12.60;62.00;;;11.04;49.91;101003.63;10415780;27;96510;-85
2023/05/08 20:06:20;;;;;;;3.83;2.70;;;12.60;62.30;;;10.96;50.43;101004.34;10386661;27;96889;-84
2023/05/08 20:11:23;;;;;;;4.80;3.27;;;12.50;62.50;;;10.96;50.85;101007.03;10391439;27;96669;-85
2023/05/08 20:16:26;;;;;;;5.83;3.53;;;12.40;62.70;;;10.92;51.20;101011.00;10396063;27;96630;-85
2023/05/08 20:21:31;;;;;;;6.37;3.87;;;12.40;62.80;;;10.90;51.73;101012.94;10406753;27;96823;-84
2023/05/08 20:26:34;;;;;;;5.13;3.57;;;12.40;63.00;;;10.84;52.20;101007.38;10431191;27;96709;-85
2023/05/08 20:31:39;;;;;;;6.00;3.20;;;12.30;63.50;;;10.82;52.76;101004.06;10421146;27;96553;-85
2023/05/08 20:36:44;;;;;;;4.63;2.67;;;12.30;63.80;;;10.67;52.11;101006.38;10405053;27;97357;-85
2023/05/08 20:41:46;;;;;;;4.87;3.27;;;12.20;63.90;;;10.61;52.45;101006.97;10429809;27;96504;-84
2023/05/08 20:46:50;;;;;;;5.23;2.20;;;12.10;64.00;;;10.54;52.71;101006.72;10420195;27;96572;-85
2023/05/08 20:51:53;;;;;;;7.57;2.90;;;12.10;64.20;;;10.49;53.21;101005.47;10428168;27;96700;-85
2023/05/08 20:56:56;;;;;;;3.30;2.47;;;12.00;64.40;;;10.48;53.01;101009.13;10393222;27;96630;-85
2023/05/08 21:01:59;;;;;;;4.70;2.27;;;11.90;64.50;;;10.45;53.34;101008.44;10382740;27;97376;-85